Boston, Massachusetts
Traffic Map
Current Weather Conditions
Boston, Massachusetts
Overcast Haze
Overcast
14°
Feels Like: 14°
Wind Chill: 14° Ceiling: 500
Heat Index: 14° Visibility: 4mi
Dew Point: 13° Wind: 16mph
Humidity: 96% Direction: 20° (NNE)
Pressure: 30.05in Gusts: 0mph
Raw Report DataKBOS 011154Z 02014KT 4SM BR OVC005 14/13 A3005 RMK AO2 RAB16E27 SLP175 P0000 60000 70018 T01390133 10139 20139 51010
Traffic Incident Summary
Active as of:
Severity:
Category:
InformationThere was an issue retrieving the traffic information for this location. Please try a different location or try again shortly.
Advertisements
Track Severe Weather on mobile